Hlavní strana
METAR-TAF:

METAR-TAF

Letiště :

Káhira, Egypt

Mezinárodní letiště Káhira

zeměpisná šířka: 30-08N, zeměpisná délka: 031-24E, výška: 64 m

Aktuální stav počasí

Zpráva byla vytvořena před 19 minutami, v 22:00 UTC
Západní vítr 6 kt
Teplota 20°C
Vlhkost vzduchu 83%
Tlak 1012 hPa
Viditelnost: 4000 m
Skoro jasno ve výšce 2500 ft
Oblačno až skoro zataženo ve výšce 7000 ft

METAR: HECA 252200Z 28006KT 4000 BA FEW025 BKN070 20/17 Q1012

Čas: 00:19 (22:19 UTC)

Předpověď počasí

Zpráva byla vytvořena před 19 minutami, v 22:00 UTC
Předpověď platná od 25 v 22 UTC do 26 v 24 UTC
Západoseverozápadní vítr 10 kt
Viditelnost 10 km a více
Polojasno ve výšce 2500 ft
Dočasný
od 25 v 22 UTC do 26 v 08 UTC
vítr z různých směrů 3 kt
Viditelnost: 4000 m
Oblačno až skoro zataženo ve výšce 7000 ft
Pravděpodobnost 40% :
Dočasný
od 26 v 00 UTC do 26 v 06 UTC
Viditelnost: 2000 m

TAF: HECA 252200Z 2522/2624 30010KT 9999 SCT025 TEMPO 2522/2608 VRB03KT 4000 BRRA BKN070 PROB40 TEMPO 2600/2606 2000

Stav a předpovědi počasí z více než 4 000 letišť (zprávy METAR a TAF).

Červené a žluté tečky na mapě představují dostupné meteorologické stanice.

Když kurzor umístíte na tečku, zobrazí se název stanice.

Pak kliknutím zobrazíte stav a předpověď počasí.

Chcete-li změnit mapu, kliknutím na zelené tlačítko se znaménkem +mapu přiblížíte, kliknutím na zelené tlačítko se znaménkem – mapu oddálíte a kliknutím na zelené šipky přejdete na sousední mapy.


METAR-TAF: